sensor_id;sensor_type;location;lat;lon;timestamp;temperature;humidity
19862;DHT22;10093;48.148;8.542;2022-09-09T00:00:15;10.00;99.90
19862;DHT22;10093;48.148;8.542;2022-09-09T00:02:48;9.80;99.90
19862;DHT22;10093;48.148;8.542;2022-09-09T00:05:24;9.60;99.90
19862;DHT22;10093;48.148;8.542;2022-09-09T00:07:55;9.70;99.90
19862;DHT22;10093;48.148;8.542;2022-09-09T00:10:50;9.80;99.90
19862;DHT22;10093;48.148;8.542;2022-09-09T00:13:44;9.70;99.90
19862;DHT22;10093;48.148;8.542;2022-09-09T00:16:20;9.50;99.90
19862;DHT22;10093;48.148;8.542;2022-09-09T00:19:17;9.20;99.90
19862;DHT22;10093;48.148;8.542;2022-09-09T00:22:08;9.20;99.90
19862;DHT22;10093;48.148;8.542;2022-09-09T00:24:47;9.10;99.90
19862;DHT22;10093;48.148;8.542;2022-09-09T00:27:35;9.40;99.90
19862;DHT22;10093;48.148;8.542;2022-09-09T00:32:39;9.30;99.90
19862;DHT22;10093;48.148;8.542;2022-09-09T00:35:23;9.30;99.90
19862;DHT22;10093;48.148;8.542;2022-09-09T00:37:52;9.30;99.90
19862;DHT22;10093;48.148;8.542;2022-09-09T00:40:37;9.20;99.90
19862;DHT22;10093;48.148;8.542;2022-09-09T00:57:44;8.90;99.90
19862;DHT22;10093;48.148;8.542;2022-09-09T01:00:24;9.00;99.90
19862;DHT22;10093;48.148;8.542;2022-09-09T01:03:31;9.10;99.90
19862;DHT22;10093;48.148;8.542;2022-09-09T01:06:20;8.90;99.90
19862;DHT22;10093;48.148;8.542;2022-09-09T01:22:47;9.00;99.90
19862;DHT22;10093;48.148;8.542;2022-09-09T01:27:52;9.50;99.90
19862;DHT22;10093;48.148;8.542;2022-09-09T01:30:19;9.80;99.90
19862;DHT22;10093;48.148;8.542;2022-09-09T01:32:49;9.90;99.90
19862;DHT22;10093;48.148;8.542;2022-09-09T01:37:49;9.90;99.90
19862;DHT22;10093;48.148;8.542;2022-09-09T01:40:14;9.90;99.90
19862;DHT22;10093;48.148;8.542;2022-09-09T01:42:40;9.90;99.90
19862;DHT22;10093;48.148;8.542;2022-09-09T01:45:06;9.90;99.90
19862;DHT22;10093;48.148;8.542;2022-09-09T01:47:32;9.90;99.90
19862;DHT22;10093;48.148;8.542;2022-09-09T01:49:58;9.70;99.90
19862;DHT22;10093;48.148;8.542;2022-09-09T01:52:24;9.70;99.90
19862;DHT22;10093;48.148;8.542;2022-09-09T01:54:50;9.80;99.90
19862;DHT22;10093;48.148;8.542;2022-09-09T01:57:29;9.90;99.90
19862;DHT22;10093;48.148;8.542;2022-09-09T02:00:08;10.10;99.90
19862;DHT22;10093;48.148;8.542;2022-09-09T02:02:38;10.00;99.90
19862;DHT22;10093;48.148;8.542;2022-09-09T02:05:25;10.00;99.90
19862;DHT22;10093;48.148;8.542;2022-09-09T02:08:15;10.00;99.90
19862;DHT22;10093;48.148;8.542;2022-09-09T02:10:55;9.90;99.90
19862;DHT22;10093;48.148;8.542;2022-09-09T02:13:22;10.00;99.90
19862;DHT22;10093;48.148;8.542;2022-09-09T02:16:07;10.00;99.90
19862;DHT22;10093;48.148;8.542;2022-09-09T02:21:34;10.10;99.90
19862;DHT22;10093;48.148;8.542;2022-09-09T02:24:05;10.20;99.90
19862;DHT22;10093;48.148;8.542;2022-09-09T02:26:37;10.50;99.90
19862;DHT22;10093;48.148;8.542;2022-09-09T02:29:08;10.80;99.90
19862;DHT22;10093;48.148;8.542;2022-09-09T02:31:37;10.80;99.90
19862;DHT22;10093;48.148;8.542;2022-09-09T02:34:05;10.90;99.90
19862;DHT22;10093;48.148;8.542;2022-09-09T02:36:34;11.20;99.90
19862;DHT22;10093;48.148;8.542;2022-09-09T02:39:01;11.20;99.90
19862;DHT22;10093;48.148;8.542;2022-09-09T02:41:35;10.90;99.90
19862;DHT22;10093;48.148;8.542;2022-09-09T02:44:02;10.60;99.90
19862;DHT22;10093;48.148;8.542;2022-09-09T02:46:47;10.40;99.90
19862;DHT22;10093;48.148;8.542;2022-09-09T02:52:18;10.40;99.90
19862;DHT22;10093;48.148;8.542;2022-09-09T02:54:45;10.30;99.90
19862;DHT22;10093;48.148;8.542;2022-09-09T02:57:20;10.20;99.90
19862;DHT22;10093;48.148;8.542;2022-09-09T02:59:47;10.20;99.90
19862;DHT22;10093;48.148;8.542;2022-09-09T03:02:13;10.10;99.90
19862;DHT22;10093;48.148;8.542;2022-09-09T03:04:39;10.00;99.90
19862;DHT22;10093;48.148;8.542;2022-09-09T03:07:06;9.90;99.90
19862;DHT22;10093;48.148;8.542;2022-09-09T03:09:31;9.80;99.90
19862;DHT22;10093;48.148;8.542;2022-09-09T03:11:58;9.80;99.90
19862;DHT22;10093;48.148;8.542;2022-09-09T03:14:23;9.80;99.90
19862;DHT22;10093;48.148;8.542;2022-09-09T03:16:52;9.90;99.90
19862;DHT22;10093;48.148;8.542;2022-09-09T03:19:19;9.90;99.90
19862;DHT22;10093;48.148;8.542;2022-09-09T03:21:45;10.10;99.90
19862;DHT22;10093;48.148;8.542;2022-09-09T03:24:11;10.00;99.90
19862;DHT22;10093;48.148;8.542;2022-09-09T03:26:37;9.80;99.90
19862;DHT22;10093;48.148;8.542;2022-09-09T03:29:04;9.80;99.90
19862;DHT22;10093;48.148;8.542;2022-09-09T03:31:32;9.70;99.90
19862;DHT22;10093;48.148;8.542;2022-09-09T03:33:58;9.60;99.90
19862;DHT22;10093;48.148;8.542;2022-09-09T03:36:25;9.70;99.90
19862;DHT22;10093;48.148;8.542;2022-09-09T03:38:52;9.70;99.90
19862;DHT22;10093;48.148;8.542;2022-09-09T03:41:17;9.60;99.90
19862;DHT22;10093;48.148;8.542;2022-09-09T03:43:43;9.50;99.90
19862;DHT22;10093;48.148;8.542;2022-09-09T03:46:09;9.60;99.90
19862;DHT22;10093;48.148;8.542;2022-09-09T03:48:35;9.50;99.90
19862;DHT22;10093;48.148;8.542;2022-09-09T03:51:01;9.60;99.90
19862;DHT22;10093;48.148;8.542;2022-09-09T03:53:28;9.70;99.90
19862;DHT22;10093;48.148;8.542;2022-09-09T03:55:55;9.70;99.90
19862;DHT22;10093;48.148;8.542;2022-09-09T03:58:24;9.70;99.90
19862;DHT22;10093;48.148;8.542;2022-09-09T04:00:55;9.80;99.90
19862;DHT22;10093;48.148;8.542;2022-09-09T04:03:22;9.90;99.90
19862;DHT22;10093;48.148;8.542;2022-09-09T04:05:50;9.90;99.90
19862;DHT22;10093;48.148;8.542;2022-09-09T04:08:16;10.00;99.90
19862;DHT22;10093;48.148;8.542;2022-09-09T04:10:45;10.00;99.90
19862;DHT22;10093;48.148;8.542;2022-09-09T04:13:12;10.30;99.90
19862;DHT22;10093;48.148;8.542;2022-09-09T04:15:40;10.20;99.90
19862;DHT22;10093;48.148;8.542;2022-09-09T04:18:06;10.30;99.90
19862;DHT22;10093;48.148;8.542;2022-09-09T04:20:32;10.40;99.90
19862;DHT22;10093;48.148;8.542;2022-09-09T04:22:58;10.40;99.90
19862;DHT22;10093;48.148;8.542;2022-09-09T04:25:24;10.40;99.90
19862;DHT22;10093;48.148;8.542;2022-09-09T04:27:54;10.50;99.90
19862;DHT22;10093;48.148;8.542;2022-09-09T04:30:20;10.70;99.90
19862;DHT22;10093;48.148;8.542;2022-09-09T04:32:46;10.70;99.90
19862;DHT22;10093;48.148;8.542;2022-09-09T04:35:12;10.60;99.90
19862;DHT22;10093;48.148;8.542;2022-09-09T04:37:37;10.60;99.90
19862;DHT22;10093;48.148;8.542;2022-09-09T04:40:03;10.50;99.90
19862;DHT22;10093;48.148;8.542;2022-09-09T04:42:29;10.50;99.90
19862;DHT22;10093;48.148;8.542;2022-09-09T04:44:54;10.50;99.90
19862;DHT22;10093;48.148;8.542;2022-09-09T04:47:20;10.60;99.90
19862;DHT22;10093;48.148;8.542;2022-09-09T04:49:46;10.60;99.90
19862;DHT22;10093;48.148;8.542;2022-09-09T04:52:12;10.50;99.90
19862;DHT22;10093;48.148;8.542;2022-09-09T04:54:38;10.60;99.90
19862;DHT22;10093;48.148;8.542;2022-09-09T04:57:04;10.70;99.90
19862;DHT22;10093;48.148;8.542;2022-09-09T04:59:30;10.50;99.90
19862;DHT22;10093;48.148;8.542;2022-09-09T05:01:56;10.70;99.90
19862;DHT22;10093;48.148;8.542;2022-09-09T05:04:21;10.60;99.90
19862;DHT22;10093;48.148;8.542;2022-09-09T05:06:47;10.80;99.90
19862;DHT22;10093;48.148;8.542;2022-09-09T05:09:13;10.80;99.90
19862;DHT22;10093;48.148;8.542;2022-09-09T05:11:39;10.70;99.90
19862;DHT22;10093;48.148;8.542;2022-09-09T05:14:04;10.80;99.90
19862;DHT22;10093;48.148;8.542;2022-09-09T05:16:31;10.90;99.90
19862;DHT22;10093;48.148;8.542;2022-09-09T05:18:57;10.90;99.90
19862;DHT22;10093;48.148;8.542;2022-09-09T05:21:23;10.90;99.90
19862;DHT22;10093;48.148;8.542;2022-09-09T05:23:51;10.80;99.90
19862;DHT22;10093;48.148;8.542;2022-09-09T05:26:19;10.70;99.90
19862;DHT22;10093;48.148;8.542;2022-09-09T05:28:45;10.80;99.90
19862;DHT22;10093;48.148;8.542;2022-09-09T05:31:12;10.90;99.90
19862;DHT22;10093;48.148;8.542;2022-09-09T05:33:40;11.10;99.90
19862;DHT22;10093;48.148;8.542;2022-09-09T05:36:17;11.40;99.90
19862;DHT22;10093;48.148;8.542;2022-09-09T05:38:43;11.90;99.90
19862;DHT22;10093;48.148;8.542;2022-09-09T05:41:10;12.30;99.90
19862;DHT22;10093;48.148;8.542;2022-09-09T05:43:40;12.40;99.90
19862;DHT22;10093;48.148;8.542;2022-09-09T05:46:11;12.60;99.90
19862;DHT22;10093;48.148;8.542;2022-09-09T05:48:39;12.90;99.90
19862;DHT22;10093;48.148;8.542;2022-09-09T05:51:07;12.80;99.90
19862;DHT22;10093;48.148;8.542;2022-09-09T05:53:34;12.50;99.90
19862;DHT22;10093;48.148;8.542;2022-09-09T05:56:07;12.50;99.90
19862;DHT22;10093;48.148;8.542;2022-09-09T05:58:36;12.60;99.90
19862;DHT22;10093;48.148;8.542;2022-09-09T06:01:04;12.50;99.90
19862;DHT22;10093;48.148;8.542;2022-09-09T06:03:30;12.40;99.90
19862;DHT22;10093;48.148;8.542;2022-09-09T06:06:00;12.50;99.90
19862;DHT22;10093;48.148;8.542;2022-09-09T06:08:26;12.70;99.90
19862;DHT22;10093;48.148;8.542;2022-09-09T06:10:52;12.70;99.90
19862;DHT22;10093;48.148;8.542;2022-09-09T06:13:18;12.60;99.90
19862;DHT22;10093;48.148;8.542;2022-09-09T06:15:51;12.80;99.90
19862;DHT22;10093;48.148;8.542;2022-09-09T06:18:18;12.80;99.90
19862;DHT22;10093;48.148;8.542;2022-09-09T06:20:53;13.00;99.90
19862;DHT22;10093;48.148;8.542;2022-09-09T06:23:19;13.10;99.90
19862;DHT22;10093;48.148;8.542;2022-09-09T06:25:45;13.20;99.90
19862;DHT22;10093;48.148;8.542;2022-09-09T06:28:11;13.40;99.90
19862;DHT22;10093;48.148;8.542;2022-09-09T06:30:36;13.60;99.90
19862;DHT22;10093;48.148;8.542;2022-09-09T06:33:02;13.90;99.90
19862;DHT22;10093;48.148;8.542;2022-09-09T06:35:29;13.90;99.90
19862;DHT22;10093;48.148;8.542;2022-09-09T06:37:54;14.10;99.90
19862;DHT22;10093;48.148;8.542;2022-09-09T06:40:20;14.40;99.90
19862;DHT22;10093;48.148;8.542;2022-09-09T06:42:45;14.60;99.90
19862;DHT22;10093;48.148;8.542;2022-09-09T06:45:11;14.70;99.90
19862;DHT22;10093;48.148;8.542;2022-09-09T06:47:37;14.80;99.90
19862;DHT22;10093;48.148;8.542;2022-09-09T06:50:03;14.80;99.90
19862;DHT22;10093;48.148;8.542;2022-09-09T06:52:28;14.80;99.90
19862;DHT22;10093;48.148;8.542;2022-09-09T06:54:54;14.80;99.90
19862;DHT22;10093;48.148;8.542;2022-09-09T06:57:19;14.40;99.90
19862;DHT22;10093;48.148;8.542;2022-09-09T06:59:45;14.50;99.90
19862;DHT22;10093;48.148;8.542;2022-09-09T07:02:11;14.40;99.90
19862;DHT22;10093;48.148;8.542;2022-09-09T07:04:36;14.30;99.90
19862;DHT22;10093;48.148;8.542;2022-09-09T07:07:02;14.20;99.90
19862;DHT22;10093;48.148;8.542;2022-09-09T07:09:28;14.00;99.90
19862;DHT22;10093;48.148;8.542;2022-09-09T07:11:55;13.90;99.90
19862;DHT22;10093;48.148;8.542;2022-09-09T07:14:23;14.10;99.90
19862;DHT22;10093;48.148;8.542;2022-09-09T07:16:49;14.10;99.90
19862;DHT22;10093;48.148;8.542;2022-09-09T07:19:14;14.10;99.90
19862;DHT22;10093;48.148;8.542;2022-09-09T07:21:40;14.20;99.90
19862;DHT22;10093;48.148;8.542;2022-09-09T07:24:06;14.30;99.90
19862;DHT22;10093;48.148;8.542;2022-09-09T07:26:35;14.40;99.90
19862;DHT22;10093;48.148;8.542;2022-09-09T07:29:02;14.40;99.90
19862;DHT22;10093;48.148;8.542;2022-09-09T07:31:30;14.40;99.90
19862;DHT22;10093;48.148;8.542;2022-09-09T07:33:57;14.50;99.90
19862;DHT22;10093;48.148;8.542;2022-09-09T07:36:28;14.20;99.90
19862;DHT22;10093;48.148;8.542;2022-09-09T07:38:59;14.00;99.90
19862;DHT22;10093;48.148;8.542;2022-09-09T07:41:31;13.90;99.90
19862;DHT22;10093;48.148;8.542;2022-09-09T07:43:59;13.90;99.90
19862;DHT22;10093;48.148;8.542;2022-09-09T07:46:26;14.00;99.90
19862;DHT22;10093;48.148;8.542;2022-09-09T07:48:53;14.10;99.90
19862;DHT22;10093;48.148;8.542;2022-09-09T07:51:23;13.90;99.90
19862;DHT22;10093;48.148;8.542;2022-09-09T07:53:52;13.90;99.90
19862;DHT22;10093;48.148;8.542;2022-09-09T07:56:19;14.20;99.90
19862;DHT22;10093;48.148;8.542;2022-09-09T07:58:49;14.10;99.90
19862;DHT22;10093;48.148;8.542;2022-09-09T08:01:21;14.90;99.90
19862;DHT22;10093;48.148;8.542;2022-09-09T08:03:53;16.20;99.90
19862;DHT22;10093;48.148;8.542;2022-09-09T08:06:19;18.90;99.90
19862;DHT22;10093;48.148;8.542;2022-09-09T08:08:44;19.90;99.90
19862;DHT22;10093;48.148;8.542;2022-09-09T08:11:14;20.90;99.90
19862;DHT22;10093;48.148;8.542;2022-09-09T08:13:41;24.20;99.90
19862;DHT22;10093;48.148;8.542;2022-09-09T08:16:16;25.50;99.90
19862;DHT22;10093;48.148;8.542;2022-09-09T08:18:43;25.50;99.90
19862;DHT22;10093;48.148;8.542;2022-09-09T08:21:15;25.70;99.90
19862;DHT22;10093;48.148;8.542;2022-09-09T08:23:44;24.50;99.90
19862;DHT22;10093;48.148;8.542;2022-09-09T08:26:12;24.30;99.90
19862;DHT22;10093;48.148;8.542;2022-09-09T08:28:39;24.00;99.90
19862;DHT22;10093;48.148;8.542;2022-09-09T08:31:35;22.30;99.90
19862;DHT22;10093;48.148;8.542;2022-09-09T08:34:03;19.80;99.90
19862;DHT22;10093;48.148;8.542;2022-09-09T08:36:31;19.70;99.90
19862;DHT22;10093;48.148;8.542;2022-09-09T08:38:59;19.50;99.90
19862;DHT22;10093;48.148;8.542;2022-09-09T08:52:22;20.80;99.90
19862;DHT22;10093;48.148;8.542;2022-09-09T08:54:49;19.70;99.90
19862;DHT22;10093;48.148;8.542;2022-09-09T08:57:21;18.20;99.90
19862;DHT22;10093;48.148;8.542;2022-09-09T08:59:52;17.10;99.90
19862;DHT22;10093;48.148;8.542;2022-09-09T09:03:06;16.40;99.90
19862;DHT22;10093;48.148;8.542;2022-09-09T09:05:47;16.00;99.90
19862;DHT22;10093;48.148;8.542;2022-09-09T09:10:56;15.60;99.90
19862;DHT22;10093;48.148;8.542;2022-09-09T09:13:45;15.60;99.90
19862;DHT22;10093;48.148;8.542;2022-09-09T09:16:30;15.70;99.90
19862;DHT22;10093;48.148;8.542;2022-09-09T09:18:58;16.10;99.90
19862;DHT22;10093;48.148;8.542;2022-09-09T09:21:39;17.50;99.90
19862;DHT22;10093;48.148;8.542;2022-09-09T09:24:45;18.00;99.90
19862;DHT22;10093;48.148;8.542;2022-09-09T09:27:18;17.60;99.90
19862;DHT22;10093;48.148;8.542;2022-09-09T09:29:48;17.40;99.90
19862;DHT22;10093;48.148;8.542;2022-09-09T09:32:18;17.80;99.90
19862;DHT22;10093;48.148;8.542;2022-09-09T09:34:58;18.20;99.90
19862;DHT22;10093;48.148;8.542;2022-09-09T09:37:30;18.00;99.90
19862;DHT22;10093;48.148;8.542;2022-09-09T09:40:08;19.10;99.90
19862;DHT22;10093;48.148;8.542;2022-09-09T09:42:34;21.20;99.90
19862;DHT22;10093;48.148;8.542;2022-09-09T09:47:59;22.80;99.90
19862;DHT22;10093;48.148;8.542;2022-09-09T09:50:24;23.10;99.90
19862;DHT22;10093;48.148;8.542;2022-09-09T09:52:54;22.80;99.90
19862;DHT22;10093;48.148;8.542;2022-09-09T09:55:21;22.90;99.90
19862;DHT22;10093;48.148;8.542;2022-09-09T09:57:49;23.10;99.90
19862;DHT22;10093;48.148;8.542;2022-09-09T10:00:20;23.20;99.90
19862;DHT22;10093;48.148;8.542;2022-09-09T10:02:47;23.10;99.90
19862;DHT22;10093;48.148;8.542;2022-09-09T10:07:39;24.40;99.90
19862;DHT22;10093;48.148;8.542;2022-09-09T10:10:07;24.50;99.90
19862;DHT22;10093;48.148;8.542;2022-09-09T10:12:52;24.20;99.90
19862;DHT22;10093;48.148;8.542;2022-09-09T10:21:26;25.00;99.90
19862;DHT22;10093;48.148;8.542;2022-09-09T10:32:30;23.40;99.90
19862;DHT22;10093;48.148;8.542;2022-09-09T10:38:00;23.70;99.90
19862;DHT22;10093;48.148;8.542;2022-09-09T10:46:15;24.40;99.90
19862;DHT22;10093;48.148;8.542;2022-09-09T10:51:52;24.30;99.90
19862;DHT22;10093;48.148;8.542;2022-09-09T10:54:56;23.80;99.90
19862;DHT22;10093;48.148;8.542;2022-09-09T10:59:53;23.50;99.90
19862;DHT22;10093;48.148;8.542;2022-09-09T11:02:32;23.40;99.90
19862;DHT22;10093;48.148;8.542;2022-09-09T11:07:57;22.90;99.90
19862;DHT22;10093;48.148;8.542;2022-09-09T11:13:09;23.80;99.90
19862;DHT22;10093;48.148;8.542;2022-09-09T11:15:46;23.90;99.90
19862;DHT22;10093;48.148;8.542;2022-09-09T11:18:19;24.00;99.90
19862;DHT22;10093;48.148;8.542;2022-09-09T11:20:49;24.30;99.90
19862;DHT22;10093;48.148;8.542;2022-09-09T11:23:40;24.90;99.90
19862;DHT22;10093;48.148;8.542;2022-09-09T11:26:12;25.60;99.90
19862;DHT22;10093;48.148;8.542;2022-09-09T11:34:38;24.50;99.90
19862;DHT22;10093;48.148;8.542;2022-09-09T11:37:15;25.10;99.90
19862;DHT22;10093;48.148;8.542;2022-09-09T11:39:52;24.00;99.90
19862;DHT22;10093;48.148;8.542;2022-09-09T11:42:24;22.80;99.90
19862;DHT22;10093;48.148;8.542;2022-09-09T11:44:50;21.30;99.90
19862;DHT22;10093;48.148;8.542;2022-09-09T11:47:28;20.50;99.90
19862;DHT22;10093;48.148;8.542;2022-09-09T11:52:44;20.70;99.90
19862;DHT22;10093;48.148;8.542;2022-09-09T11:55:33;22.40;99.90
19862;DHT22;10093;48.148;8.542;2022-09-09T11:58:01;23.80;99.90
19862;DHT22;10093;48.148;8.542;2022-09-09T12:00:40;24.40;99.90
19862;DHT22;10093;48.148;8.542;2022-09-09T12:05:58;21.80;99.90
19862;DHT22;10093;48.148;8.542;2022-09-09T12:08:28;22.10;99.90
19862;DHT22;10093;48.148;8.542;2022-09-09T12:10:58;22.10;99.90
19862;DHT22;10093;48.148;8.542;2022-09-09T12:13:28;21.80;99.90
19862;DHT22;10093;48.148;8.542;2022-09-09T12:15:57;20.70;99.90
19862;DHT22;10093;48.148;8.542;2022-09-09T12:23:49;22.40;99.90
19862;DHT22;10093;48.148;8.542;2022-09-09T12:26:36;22.80;99.90
19862;DHT22;10093;48.148;8.542;2022-09-09T12:31:51;22.40;99.90
19862;DHT22;10093;48.148;8.542;2022-09-09T12:34:41;21.70;99.90
19862;DHT22;10093;48.148;8.542;2022-09-09T12:37:35;21.00;99.90
19862;DHT22;10093;48.148;8.542;2022-09-09T12:40:04;20.70;99.90
19862;DHT22;10093;48.148;8.542;2022-09-09T12:42:31;21.00;99.90
19862;DHT22;10093;48.148;8.542;2022-09-09T12:45:03;21.10;99.90
19862;DHT22;10093;48.148;8.542;2022-09-09T12:50:32;22.50;99.90
19862;DHT22;10093;48.148;8.542;2022-09-09T12:53:01;24.00;99.90
19862;DHT22;10093;48.148;8.542;2022-09-09T12:55:31;24.60;99.90
19862;DHT22;10093;48.148;8.542;2022-09-09T12:57:59;25.40;99.90
19862;DHT22;10093;48.148;8.542;2022-09-09T13:00:26;25.40;99.90
19862;DHT22;10093;48.148;8.542;2022-09-09T13:02:57;24.80;99.90
19862;DHT22;10093;48.148;8.542;2022-09-09T13:05:37;23.40;99.90
19862;DHT22;10093;48.148;8.542;2022-09-09T13:08:08;23.20;99.90
19862;DHT22;10093;48.148;8.542;2022-09-09T13:11:06;23.60;99.90
19862;DHT22;10093;48.148;8.542;2022-09-09T13:13:36;23.40;99.90
19862;DHT22;10093;48.148;8.542;2022-09-09T13:16:04;22.30;99.90
19862;DHT22;10093;48.148;8.542;2022-09-09T13:18:34;21.80;99.90
19862;DHT22;10093;48.148;8.542;2022-09-09T13:21:00;21.70;99.90
19862;DHT22;10093;48.148;8.542;2022-09-09T13:23:28;21.70;99.90
19862;DHT22;10093;48.148;8.542;2022-09-09T13:26:20;21.40;99.90
19862;DHT22;10093;48.148;8.542;2022-09-09T13:28:44;21.10;99.90
19862;DHT22;10093;48.148;8.542;2022-09-09T13:31:23;22.00;99.90
19862;DHT22;10093;48.148;8.542;2022-09-09T13:33:49;23.10;99.90
19862;DHT22;10093;48.148;8.542;2022-09-09T13:36:15;23.40;99.90
19862;DHT22;10093;48.148;8.542;2022-09-09T13:38:59;23.30;99.90
19862;DHT22;10093;48.148;8.542;2022-09-09T13:41:46;23.10;99.90
19862;DHT22;10093;48.148;8.542;2022-09-09T13:44:25;23.00;99.90
19862;DHT22;10093;48.148;8.542;2022-09-09T13:49:34;23.20;99.90
19862;DHT22;10093;48.148;8.542;2022-09-09T13:54:31;21.80;99.90
19862;DHT22;10093;48.148;8.542;2022-09-09T13:56:56;20.90;99.90
19862;DHT22;10093;48.148;8.542;2022-09-09T13:59:22;20.60;99.90
19862;DHT22;10093;48.148;8.542;2022-09-09T14:01:50;20.00;99.90
19862;DHT22;10093;48.148;8.542;2022-09-09T14:04:18;19.70;99.90
19862;DHT22;10093;48.148;8.542;2022-09-09T14:06:46;19.60;99.90
19862;DHT22;10093;48.148;8.542;2022-09-09T14:09:14;19.40;99.90
19862;DHT22;10093;48.148;8.542;2022-09-09T14:11:41;19.60;99.90
19862;DHT22;10093;48.148;8.542;2022-09-09T14:14:07;19.70;99.90
19862;DHT22;10093;48.148;8.542;2022-09-09T14:16:33;19.60;99.90
19862;DHT22;10093;48.148;8.542;2022-09-09T14:18:58;19.40;99.90
19862;DHT22;10093;48.148;8.542;2022-09-09T14:21:25;19.40;99.90
19862;DHT22;10093;48.148;8.542;2022-09-09T14:23:51;19.20;99.90
19862;DHT22;10093;48.148;8.542;2022-09-09T14:26:21;19.20;99.90
19862;DHT22;10093;48.148;8.542;2022-09-09T14:28:47;19.00;99.90
19862;DHT22;10093;48.148;8.542;2022-09-09T14:31:13;18.80;99.90
19862;DHT22;10093;48.148;8.542;2022-09-09T14:33:40;18.20;99.90
19862;DHT22;10093;48.148;8.542;2022-09-09T14:36:06;17.80;99.90
19862;DHT22;10093;48.148;8.542;2022-09-09T14:38:34;17.60;99.90
19862;DHT22;10093;48.148;8.542;2022-09-09T14:41:04;17.90;99.90
19862;DHT22;10093;48.148;8.542;2022-09-09T14:43:30;18.60;99.90
19862;DHT22;10093;48.148;8.542;2022-09-09T14:46:07;18.80;99.90
19862;DHT22;10093;48.148;8.542;2022-09-09T14:48:33;18.60;99.90
19862;DHT22;10093;48.148;8.542;2022-09-09T14:51:08;18.60;99.90
19862;DHT22;10093;48.148;8.542;2022-09-09T14:53:34;18.80;99.90
19862;DHT22;10093;48.148;8.542;2022-09-09T14:56:05;18.90;99.90
19862;DHT22;10093;48.148;8.542;2022-09-09T14:58:31;19.00;99.90
19862;DHT22;10093;48.148;8.542;2022-09-09T15:01:03;18.90;99.90
19862;DHT22;10093;48.148;8.542;2022-09-09T15:03:28;19.20;99.90
19862;DHT22;10093;48.148;8.542;2022-09-09T15:05:54;18.90;99.90
19862;DHT22;10093;48.148;8.542;2022-09-09T15:08:19;19.10;99.90
19862;DHT22;10093;48.148;8.542;2022-09-09T15:10:45;19.10;99.90
19862;DHT22;10093;48.148;8.542;2022-09-09T15:13:14;19.50;99.90
19862;DHT22;10093;48.148;8.542;2022-09-09T15:15:42;20.30;99.90
19862;DHT22;10093;48.148;8.542;2022-09-09T15:18:08;21.40;99.90
19862;DHT22;10093;48.148;8.542;2022-09-09T15:20:34;21.10;99.90
19862;DHT22;10093;48.148;8.542;2022-09-09T15:23:00;21.10;99.90
19862;DHT22;10093;48.148;8.542;2022-09-09T15:25:26;21.40;99.90
19862;DHT22;10093;48.148;8.542;2022-09-09T15:27:52;21.20;99.90
19862;DHT22;10093;48.148;8.542;2022-09-09T15:30:17;21.60;99.90
19862;DHT22;10093;48.148;8.542;2022-09-09T15:32:43;21.10;99.90
19862;DHT22;10093;48.148;8.542;2022-09-09T15:35:08;21.30;99.90
19862;DHT22;10093;48.148;8.542;2022-09-09T15:37:34;21.10;99.90
19862;DHT22;10093;48.148;8.542;2022-09-09T15:40:00;21.10;99.90
19862;DHT22;10093;48.148;8.542;2022-09-09T15:42:26;20.40;99.90
19862;DHT22;10093;48.148;8.542;2022-09-09T15:44:51;19.50;99.90
19862;DHT22;10093;48.148;8.542;2022-09-09T15:47:17;18.70;99.90
19862;DHT22;10093;48.148;8.542;2022-09-09T15:49:43;18.30;99.90
19862;DHT22;10093;48.148;8.542;2022-09-09T15:52:09;18.10;99.90
19862;DHT22;10093;48.148;8.542;2022-09-09T15:54:36;18.40;99.90
19862;DHT22;10093;48.148;8.542;2022-09-09T15:57:07;18.40;99.90
19862;DHT22;10093;48.148;8.542;2022-09-09T15:59:36;18.30;99.90
19862;DHT22;10093;48.148;8.542;2022-09-09T16:02:02;17.90;99.90
19862;DHT22;10093;48.148;8.542;2022-09-09T16:04:29;17.80;99.90
19862;DHT22;10093;48.148;8.542;2022-09-09T16:07:02;17.80;99.90
19862;DHT22;10093;48.148;8.542;2022-09-09T16:09:29;17.70;99.90
19862;DHT22;10093;48.148;8.542;2022-09-09T16:11:57;17.50;99.90
19862;DHT22;10093;48.148;8.542;2022-09-09T16:14:23;17.40;99.90
19862;DHT22;10093;48.148;8.542;2022-09-09T16:16:50;17.20;99.90
19862;DHT22;10093;48.148;8.542;2022-09-09T16:19:16;17.00;99.90
19862;DHT22;10093;48.148;8.542;2022-09-09T16:21:44;17.00;99.90
19862;DHT22;10093;48.148;8.542;2022-09-09T16:24:12;17.00;99.90
19862;DHT22;10093;48.148;8.542;2022-09-09T16:26:41;16.90;99.90
19862;DHT22;10093;48.148;8.542;2022-09-09T16:29:09;16.80;99.90
19862;DHT22;10093;48.148;8.542;2022-09-09T16:31:34;16.80;99.90
19862;DHT22;10093;48.148;8.542;2022-09-09T16:34:00;16.80;99.90
19862;DHT22;10093;48.148;8.542;2022-09-09T16:36:29;16.80;99.90
19862;DHT22;10093;48.148;8.542;2022-09-09T16:39:00;16.80;99.90
19862;DHT22;10093;48.148;8.542;2022-09-09T16:41:28;16.90;99.90
19862;DHT22;10093;48.148;8.542;2022-09-09T16:43:55;17.00;99.90
19862;DHT22;10093;48.148;8.542;2022-09-09T16:46:22;16.90;99.90
19862;DHT22;10093;48.148;8.542;2022-09-09T16:48:49;16.80;99.90
19862;DHT22;10093;48.148;8.542;2022-09-09T16:51:19;16.60;99.90
19862;DHT22;10093;48.148;8.542;2022-09-09T16:53:45;16.70;99.90
19862;DHT22;10093;48.148;8.542;2022-09-09T16:56:17;16.70;99.90
19862;DHT22;10093;48.148;8.542;2022-09-09T16:58:49;16.80;99.90
19862;DHT22;10093;48.148;8.542;2022-09-09T17:01:15;16.70;99.90
19862;DHT22;10093;48.148;8.542;2022-09-09T17:03:41;16.50;99.90
19862;DHT22;10093;48.148;8.542;2022-09-09T17:06:12;16.50;99.90
19862;DHT22;10093;48.148;8.542;2022-09-09T17:08:39;16.40;99.90
19862;DHT22;10093;48.148;8.542;2022-09-09T17:11:17;16.20;99.90
19862;DHT22;10093;48.148;8.542;2022-09-09T17:13:47;16.40;99.90
19862;DHT22;10093;48.148;8.542;2022-09-09T17:16:15;16.40;99.90
19862;DHT22;10093;48.148;8.542;2022-09-09T17:18:41;16.00;99.90
19862;DHT22;10093;48.148;8.542;2022-09-09T17:21:12;15.60;99.90
19862;DHT22;10093;48.148;8.542;2022-09-09T17:23:39;15.20;99.90
19862;DHT22;10093;48.148;8.542;2022-09-09T17:26:07;14.90;99.90
19862;DHT22;10093;48.148;8.542;2022-09-09T17:28:34;14.70;99.90
19862;DHT22;10093;48.148;8.542;2022-09-09T17:31:00;14.60;99.90
19862;DHT22;10093;48.148;8.542;2022-09-09T17:33:31;14.50;99.90
19862;DHT22;10093;48.148;8.542;2022-09-09T17:36:06;14.40;99.90
19862;DHT22;10093;48.148;8.542;2022-09-09T17:38:32;14.30;99.90
19862;DHT22;10093;48.148;8.542;2022-09-09T17:43:31;14.20;99.90
19862;DHT22;10093;48.148;8.542;2022-09-09T17:46:14;14.10;99.90
19862;DHT22;10093;48.148;8.542;2022-09-09T17:48:41;14.00;99.90
19862;DHT22;10093;48.148;8.542;2022-09-09T17:51:11;14.00;99.90
19862;DHT22;10093;48.148;8.542;2022-09-09T17:53:42;14.10;99.90
19862;DHT22;10093;48.148;8.542;2022-09-09T17:56:09;14.10;99.90